createdAt,value
2018-11-23T00:00:32.043Z,35.47
2018-11-23T00:03:01.616Z,40.43
2018-11-23T00:05:30.663Z,40.13
2018-11-23T00:08:00.132Z,38.23
2018-11-23T00:10:31.106Z,39.80
2018-11-23T00:13:00.070Z,36.30
2018-11-23T00:15:29.010Z,33.93
2018-11-23T00:17:58.209Z,38.80
2018-11-23T00:20:28.262Z,34.43
2018-11-23T00:22:57.282Z,40.90
2018-11-23T00:25:26.859Z,38.83
2018-11-23T00:27:56.461Z,38.97
2018-11-23T00:30:26.530Z,34.70
2018-11-23T00:32:55.557Z,44.83
2018-11-23T00:35:25.963Z,39.83
2018-11-23T00:37:55.464Z,40.87
2018-11-23T00:40:26.567Z,37.63
2018-11-23T00:42:55.884Z,43.00
2018-11-23T00:45:24.902Z,40.53
2018-11-23T00:47:54.621Z,41.23
2018-11-23T00:50:24.296Z,39.47
2018-11-23T00:52:54.010Z,41.63
2018-11-23T00:55:23.977Z,45.27
2018-11-23T00:57:53.010Z,43.53
2018-11-23T01:00:25.412Z,40.73
2018-11-23T01:02:54.952Z,44.67
2018-11-23T01:05:23.921Z,33.33
2018-11-23T01:07:52.875Z,34.67
2018-11-23T01:10:22.980Z,42.13
2018-11-23T01:12:52.962Z,37.70
2018-11-23T01:15:21.903Z,40.70
2018-11-23T01:17:50.932Z,42.07
2018-11-23T01:20:21.228Z,40.40
2018-11-23T01:22:50.556Z,40.43
2018-11-23T01:25:20.530Z,39.63
2018-11-23T01:27:50.711Z,36.37
2018-11-23T01:30:23.368Z,47.90
2018-11-23T01:32:52.356Z,35.97
2018-11-23T01:35:21.332Z,40.63
2018-11-23T01:37:50.359Z,37.87
2018-11-23T01:40:22.006Z,38.67
2018-11-23T01:42:51.049Z,46.27
2018-11-23T01:45:20.060Z,41.53
2018-11-23T01:47:49.073Z,42.53
2018-11-23T01:50:20.491Z,36.00
2018-11-23T01:52:50.270Z,42.77
2018-11-23T01:55:20.102Z,38.83
2018-11-23T01:57:49.546Z,41.63
2018-11-23T02:00:19.682Z,33.93
2018-11-23T02:02:49.301Z,36.40
2018-11-23T02:05:18.305Z,36.87
2018-11-23T02:07:47.272Z,29.93
2018-11-23T02:10:17.121Z,36.60
2018-11-23T02:12:46.069Z,40.37
2018-11-23T02:15:17.169Z,37.03
2018-11-23T02:17:46.489Z,41.53
2018-11-23T02:20:16.646Z,41.23
2018-11-23T02:22:45.607Z,34.57
2018-11-23T02:25:14.604Z,42.30
2018-11-23T02:27:43.566Z,35.77
2018-11-23T02:30:14.628Z,41.57
2018-11-23T02:32:43.885Z,35.17
2018-11-23T02:35:13.204Z,39.30
2018-11-23T02:37:42.198Z,28.97
2018-11-23T02:40:12.522Z,37.50
2018-11-23T02:42:41.750Z,34.57
2018-11-23T02:45:13.260Z,29.27
2018-11-23T02:47:43.015Z,35.03
2018-11-23T02:50:12.020Z,31.27
2018-11-23T02:52:41.663Z,37.37
2018-11-23T02:55:11.924Z,29.83
2018-11-23T02:57:40.894Z,32.53
2018-11-23T03:00:11.918Z,31.70
2018-11-23T03:02:41.053Z,33.23
2018-11-23T03:05:11.669Z,29.83
2018-11-23T03:07:41.502Z,35.53
2018-11-23T03:10:11.742Z,34.77
2018-11-23T03:12:41.426Z,34.93
2018-11-23T03:15:12.360Z,32.63
2018-11-23T03:17:41.767Z,31.63
2018-11-23T03:20:13.055Z,31.87
2018-11-23T03:22:41.999Z,38.00
2018-11-23T03:25:11.520Z,32.57
2018-11-23T03:27:41.027Z,31.03
2018-11-23T03:30:12.174Z,35.53
2018-11-23T03:32:41.311Z,30.00
2018-11-23T03:35:10.257Z,36.33
2018-11-23T03:37:39.269Z,29.27
2018-11-23T03:40:08.240Z,29.63
2018-11-23T03:42:37.171Z,33.17
2018-11-23T03:45:07.619Z,30.60
2018-11-23T03:47:36.552Z,25.87
2018-11-23T03:50:06.128Z,31.03
2018-11-23T03:52:35.177Z,27.03
2018-11-23T03:55:04.148Z,32.40
2018-11-23T03:57:33.159Z,24.43
2018-11-23T04:00:02.097Z,35.00
2018-11-23T04:02:31.065Z,33.53
2018-11-23T04:04:59.989Z,31.67
2018-11-23T04:07:28.956Z,30.03
2018-11-23T04:09:57.879Z,29.03
2018-11-23T04:12:26.778Z,29.27
2018-11-23T04:14:55.746Z,29.37
2018-11-23T04:17:24.722Z,34.40
2018-11-23T04:19:53.646Z,35.03
2018-11-23T04:22:22.604Z,34.37
2018-11-23T04:24:51.975Z,26.47
2018-11-23T04:27:20.913Z,31.30
2018-11-23T04:29:49.866Z,38.17
2018-11-23T04:32:18.817Z,33.07
2018-11-23T04:34:47.766Z,37.23
2018-11-23T04:37:16.739Z,30.20
2018-11-23T04:39:45.699Z,32.60
2018-11-23T04:42:14.619Z,28.40
2018-11-23T04:44:43.618Z,31.83
2018-11-23T04:47:12.725Z,33.00
2018-11-23T04:49:41.670Z,37.17
2018-11-23T04:52:10.614Z,28.57
2018-11-23T04:54:39.556Z,34.10
2018-11-23T04:57:08.496Z,33.27
2018-11-23T04:59:37.790Z,36.10
2018-11-23T05:02:06.756Z,35.60
2018-11-23T05:04:35.715Z,27.53
2018-11-23T05:07:04.678Z,37.27
2018-11-23T05:09:33.602Z,33.97
2018-11-23T05:12:02.505Z,36.17
2018-11-23T05:14:31.480Z,41.17
2018-11-23T05:17:00.420Z,36.27
2018-11-23T05:19:29.368Z,36.07
2018-11-23T05:21:58.297Z,33.47
2018-11-23T05:24:27.206Z,32.13
2018-11-23T05:26:56.143Z,36.43
2018-11-23T05:29:25.104Z,30.63
2018-11-23T05:31:54.013Z,32.97
2018-11-23T05:34:22.981Z,36.43
2018-11-23T05:36:51.981Z,38.50
2018-11-23T05:39:20.920Z,32.50
2018-11-23T05:41:49.911Z,36.07
2018-11-23T05:44:18.867Z,32.10
2018-11-23T05:46:47.821Z,28.80
2018-11-23T05:49:16.739Z,33.07
2018-11-23T05:51:45.725Z,33.60
2018-11-23T05:54:14.683Z,30.30
2018-11-23T05:56:43.631Z,35.60
2018-11-23T05:59:12.973Z,27.23
2018-11-23T06:01:41.936Z,25.77
2018-11-23T06:04:10.900Z,31.77
2018-11-23T06:06:42.486Z,34.17
2018-11-23T06:09:08.797Z,36.53
2018-11-23T06:11:37.752Z,31.40
2018-11-23T06:14:06.673Z,34.30
2018-11-23T06:16:35.633Z,30.40
2018-11-23T06:19:04.601Z,35.77
2018-11-23T06:21:33.539Z,29.40
2018-11-23T06:24:02.533Z,29.97
2018-11-23T06:26:31.750Z,31.93
2018-11-23T06:29:01.093Z,33.23
2018-11-23T06:31:30.021Z,33.30
2018-11-23T06:33:58.991Z,33.83
2018-11-23T06:36:27.947Z,33.10
2018-11-23T06:38:56.923Z,30.80
2018-11-23T06:41:25.867Z,30.30
2018-11-23T06:43:54.792Z,31.37
2018-11-23T06:46:23.751Z,32.10
2018-11-23T06:48:52.760Z,30.17
2018-11-23T06:51:21.755Z,29.83
2018-11-23T06:53:50.696Z,33.03
2018-11-23T06:56:19.647Z,30.60
2018-11-23T06:58:48.572Z,35.37
2018-11-23T07:01:17.529Z,32.17
2018-11-23T07:03:46.425Z,34.83
2018-11-23T07:06:15.361Z,32.53
2018-11-23T07:08:44.350Z,29.30
2018-11-23T07:11:13.582Z,29.13
2018-11-23T07:13:42.498Z,27.07
2018-11-23T07:16:11.455Z,40.37
2018-11-23T07:18:40.439Z,33.80
2018-11-23T07:21:09.387Z,27.93
2018-11-23T07:23:38.365Z,35.53
2018-11-23T07:26:08.205Z,31.83
2018-11-23T07:28:37.147Z,32.43
2018-11-23T07:31:06.073Z,30.97
2018-11-23T07:33:35.020Z,30.07
2018-11-23T07:36:03.960Z,37.87
2018-11-23T07:38:32.876Z,28.70
2018-11-23T07:41:13.114Z,33.70
2018-11-23T07:43:42.060Z,32.50
2018-11-23T07:46:10.991Z,33.10
2018-11-23T07:48:39.947Z,34.27
2018-11-23T07:51:08.870Z,32.63
2018-11-23T07:53:37.800Z,34.97
2018-11-23T07:56:06.762Z,34.87
2018-11-23T07:58:35.681Z,31.23
2018-11-23T08:01:04.695Z,31.27
2018-11-23T08:03:33.630Z,29.90
2018-11-23T08:06:02.535Z,28.93
2018-11-23T08:08:31.487Z,30.67
2018-11-23T08:11:03.082Z,29.70
2018-11-23T08:13:32.023Z,33.73
2018-11-23T08:16:00.970Z,33.47
2018-11-23T08:18:29.938Z,33.43
2018-11-23T08:20:58.853Z,38.23
2018-11-23T08:23:27.791Z,27.23
2018-11-23T08:25:56.741Z,29.00
2018-11-23T08:28:25.679Z,32.63
2018-11-23T08:30:54.605Z,30.40
2018-11-23T08:33:23.531Z,31.03
2018-11-23T08:35:52.443Z,33.30
2018-11-23T08:38:21.365Z,31.00
2018-11-23T08:40:50.337Z,29.30
2018-11-23T08:43:19.311Z,27.57
2018-11-23T08:45:48.310Z,33.47
2018-11-23T08:48:17.277Z,28.60
2018-11-23T08:50:46.199Z,22.10
2018-11-23T08:53:15.127Z,30.13
2018-11-23T08:55:44.080Z,26.83
2018-11-23T08:58:13.003Z,25.83
2018-11-23T09:00:41.954Z,30.33
2018-11-23T09:03:11.236Z,24.43
2018-11-23T09:05:40.157Z,31.53
2018-11-23T09:08:09.113Z,30.57
2018-11-23T09:10:40.233Z,29.00
2018-11-23T09:13:09.138Z,28.07
2018-11-23T09:15:38.075Z,27.13
2018-11-23T09:18:07.020Z,28.93
2018-11-23T09:20:35.963Z,31.87
2018-11-23T09:23:05.000Z,28.37
2018-11-23T09:25:33.952Z,26.73
2018-11-23T09:28:02.909Z,28.43
2018-11-23T09:30:31.889Z,30.27
2018-11-23T09:33:00.781Z,27.20
2018-11-23T09:35:30.058Z,30.17
2018-11-23T09:37:59.002Z,30.67
2018-11-23T09:40:29.274Z,28.23
2018-11-23T09:42:58.375Z,33.77
2018-11-23T09:45:28.814Z,28.97
2018-11-23T09:47:59.232Z,29.23
2018-11-23T09:50:28.622Z,26.60
2018-11-23T09:52:58.976Z,32.43
2018-11-23T09:55:28.831Z,24.60
2018-11-23T09:57:57.745Z,28.10
2018-11-23T10:00:29.178Z,35.70
2018-11-23T10:02:58.932Z,28.33
2018-11-23T10:05:28.741Z,26.73
2018-11-23T10:07:59.078Z,24.00
2018-11-23T10:10:28.786Z,28.50
2018-11-23T10:12:57.756Z,30.93
2018-11-23T10:15:27.846Z,27.50
2018-11-23T10:17:56.755Z,25.47
2018-11-23T10:20:28.129Z,31.50
2018-11-23T10:22:57.184Z,32.37
2018-11-23T10:25:28.276Z,28.17
2018-11-23T10:27:57.487Z,28.47
2018-11-23T10:30:27.662Z,29.67
2018-11-23T10:32:58.136Z,23.33
2018-11-23T10:35:27.407Z,24.23
2018-11-23T10:37:57.507Z,31.73
2018-11-23T10:40:27.974Z,32.97
2018-11-23T10:42:56.898Z,26.67
2018-11-23T10:45:27.134Z,23.93
2018-11-23T10:47:56.906Z,26.03
2018-11-23T10:50:27.311Z,30.27
2018-11-23T10:55:32.759Z,27.90
2018-11-23T10:58:01.704Z,30.20
2018-11-23T11:00:35.863Z,30.60
2018-11-23T11:03:10.598Z,28.40
2018-11-23T11:05:44.907Z,29.57
2018-11-23T11:08:13.819Z,31.50
2018-11-23T11:10:42.774Z,28.37
2018-11-23T11:13:11.728Z,35.57
2018-11-23T11:15:40.778Z,29.60
2018-11-23T11:18:09.718Z,32.57
2018-11-23T11:20:38.641Z,26.90
2018-11-23T11:23:07.602Z,29.93
2018-11-23T11:25:36.562Z,30.13
2018-11-23T11:28:05.511Z,29.13
2018-11-23T11:30:34.419Z,30.10
2018-11-23T11:33:03.319Z,24.03
2018-11-23T11:35:32.286Z,34.13
2018-11-23T11:38:01.241Z,28.47
2018-11-23T11:40:30.146Z,30.60
2018-11-23T11:42:59.082Z,28.80
2018-11-23T11:45:28.069Z,29.57
2018-11-23T11:47:57.004Z,33.70
2018-11-23T11:50:25.899Z,30.83
2018-11-23T11:52:54.845Z,34.50
2018-11-23T11:55:23.783Z,30.90
2018-11-23T11:57:52.743Z,39.60
2018-11-23T12:00:23.873Z,33.37
2018-11-23T12:02:52.984Z,29.47
2018-11-23T12:05:21.915Z,30.73
2018-11-23T12:07:50.850Z,36.33
2018-11-23T12:10:22.419Z,28.33
2018-11-23T12:12:51.451Z,31.50
2018-11-23T12:15:20.476Z,30.83
2018-11-23T12:17:49.492Z,31.77
2018-11-23T12:20:19.975Z,28.93
2018-11-23T12:22:55.445Z,34.80
2018-11-23T12:25:24.496Z,33.00
2018-11-23T12:27:53.599Z,39.73
2018-11-23T12:30:23.096Z,30.60
2018-11-23T12:32:53.274Z,37.73
2018-11-23T12:35:22.684Z,27.07
2018-11-23T12:37:51.625Z,28.23
2018-11-23T12:40:21.173Z,53.40
2018-11-23T12:42:50.484Z,35.00
2018-11-23T12:45:21.813Z,31.47
2018-11-23T12:47:50.730Z,29.40
2018-11-23T12:50:21.262Z,27.47
2018-11-23T12:52:50.186Z,42.57
2018-11-23T12:55:19.567Z,34.03
2018-11-23T12:57:48.631Z,37.50
2018-11-23T13:00:20.835Z,34.87
2018-11-23T13:02:51.098Z,34.37
2018-11-23T13:05:20.976Z,33.70
2018-11-23T13:07:50.505Z,34.93
2018-11-23T13:10:19.472Z,34.07
2018-11-23T13:12:50.952Z,29.73
2018-11-23T13:15:17.335Z,32.13
2018-11-23T13:17:46.298Z,33.60
2018-11-23T13:20:15.935Z,31.20
2018-11-23T13:22:45.030Z,34.87
2018-11-23T13:25:17.094Z,34.87
2018-11-23T13:27:46.032Z,30.80
2018-11-23T13:30:18.361Z,34.60
2018-11-23T13:32:47.312Z,39.50
2018-11-23T13:35:17.353Z,34.23
2018-11-23T13:37:46.260Z,35.43
2018-11-23T13:40:16.617Z,35.53
2018-11-23T13:42:45.781Z,31.03
2018-11-23T13:45:16.260Z,28.57
2018-11-23T13:47:45.194Z,39.70
2018-11-23T13:50:15.413Z,30.90
2018-11-23T13:52:45.462Z,35.77
2018-11-23T13:55:14.447Z,36.60
2018-11-23T13:57:43.419Z,30.87
2018-11-23T14:00:14.444Z,35.40
2018-11-23T14:02:44.108Z,30.37
2018-11-23T14:05:15.446Z,38.87
2018-11-23T14:07:45.391Z,35.97
2018-11-23T14:10:15.876Z,36.00
2018-11-23T14:12:45.188Z,37.33
2018-11-23T14:15:15.659Z,36.83
2018-11-23T14:17:45.593Z,39.17
2018-11-23T14:20:15.390Z,32.73
2018-11-23T14:22:44.322Z,35.90
2018-11-23T14:25:14.817Z,43.90
2018-11-23T14:27:44.332Z,32.77
2018-11-23T14:30:15.585Z,37.83
2018-11-23T14:32:44.607Z,44.37
2018-11-23T14:35:14.994Z,40.03
2018-11-23T14:37:44.545Z,42.77
2018-11-23T14:40:13.991Z,40.27
2018-11-23T14:42:43.832Z,40.97
2018-11-23T14:45:16.363Z,40.17
2018-11-23T14:47:45.509Z,39.83
2018-11-23T14:50:16.819Z,40.67
2018-11-23T14:52:47.914Z,37.80
2018-11-23T14:55:17.234Z,41.37
2018-11-23T14:57:46.556Z,46.10
2018-11-23T15:00:31.811Z,44.83
2018-11-23T15:03:01.967Z,43.00
2018-11-23T15:05:30.884Z,36.63
2018-11-23T15:07:59.790Z,42.03
2018-11-23T15:10:29.868Z,37.07
2018-11-23T15:12:59.840Z,37.47
2018-11-23T15:15:30.192Z,42.10
2018-11-23T15:17:59.712Z,38.60
2018-11-23T15:20:31.451Z,38.33
2018-11-23T15:23:01.881Z,35.60
2018-11-23T15:25:30.826Z,47.60
2018-11-23T15:27:59.757Z,35.87
2018-11-23T15:30:31.513Z,36.23
2018-11-23T15:33:00.466Z,48.03
2018-11-23T15:35:30.541Z,44.63
2018-11-23T15:37:59.556Z,39.80
2018-11-23T15:40:29.381Z,45.83
2018-11-23T15:43:00.723Z,40.90
2018-11-23T15:45:30.666Z,48.23
2018-11-23T15:48:00.217Z,47.23
2018-11-23T15:50:31.576Z,48.93
2018-11-23T15:53:00.550Z,46.73
2018-11-23T15:55:31.088Z,49.87
2018-11-23T15:58:01.581Z,44.47
2018-11-23T16:00:32.853Z,49.97
2018-11-23T16:03:01.835Z,43.37
2018-11-23T16:05:30.790Z,37.97
2018-11-23T16:08:01.427Z,43.13
2018-11-23T16:10:31.791Z,41.93
2018-11-23T16:13:01.734Z,44.63
2018-11-23T16:15:31.085Z,42.60
2018-11-23T16:18:00.645Z,55.27
2018-11-23T16:20:31.968Z,43.77
2018-11-23T16:23:03.197Z,43.10
2018-11-23T16:25:32.127Z,49.50
2018-11-23T16:28:02.414Z,48.27
2018-11-23T16:30:32.679Z,40.70
2018-11-23T16:33:02.754Z,42.97
2018-11-23T16:35:34.173Z,55.00
2018-11-23T16:38:04.732Z,49.53
2018-11-23T16:40:34.917Z,47.60
2018-11-23T16:43:04.320Z,46.23
2018-11-23T16:45:34.560Z,36.00
2018-11-23T16:48:04.788Z,47.13
2018-11-23T16:50:33.739Z,43.10
2018-11-23T16:53:03.171Z,41.10
2018-11-23T16:55:32.270Z,40.87
2018-11-23T16:58:03.445Z,47.23
2018-11-23T17:00:33.403Z,45.77
2018-11-23T17:03:04.718Z,47.77
2018-11-23T17:05:37.168Z,50.63
2018-11-23T17:08:07.195Z,55.30
2018-11-23T17:10:36.161Z,41.80
2018-11-23T17:13:05.138Z,42.07
2018-11-23T17:15:34.107Z,41.33
2018-11-23T17:18:03.055Z,48.63
2018-11-23T17:20:33.212Z,50.40
2018-11-23T17:23:03.124Z,38.83
2018-11-23T17:25:32.524Z,51.33
2018-11-23T17:28:03.082Z,53.73
2018-11-23T17:30:33.062Z,43.33
2018-11-23T17:33:02.024Z,44.53
2018-11-23T17:35:30.966Z,41.13
2018-11-23T17:37:59.931Z,43.27
2018-11-23T17:40:30.576Z,37.13
2018-11-23T17:42:59.477Z,38.87
2018-11-23T17:45:30.477Z,44.47
2018-11-23T17:47:59.502Z,41.20
2018-11-23T17:50:29.790Z,45.07
2018-11-23T17:52:59.036Z,42.70
2018-11-23T17:55:27.995Z,44.13
2018-11-23T17:57:57.118Z,47.40
2018-11-23T18:00:28.262Z,49.50
2018-11-23T18:02:58.013Z,52.20
2018-11-23T18:05:27.590Z,42.43
2018-11-23T18:07:56.548Z,36.30
2018-11-23T18:10:26.826Z,39.63
2018-11-23T18:12:56.521Z,45.77
2018-11-23T18:15:26.543Z,41.10
2018-11-23T18:17:56.562Z,43.50
2018-11-23T18:20:26.376Z,42.73
2018-11-23T18:22:56.087Z,51.23
2018-11-23T18:25:27.468Z,46.00
2018-11-23T18:28:00.651Z,35.53
2018-11-23T18:30:31.643Z,41.10
2018-11-23T18:33:01.501Z,41.57
2018-11-23T18:35:30.436Z,43.43
2018-11-23T18:37:59.386Z,43.03
2018-11-23T18:40:28.323Z,39.83
2018-11-23T18:42:57.254Z,41.03
2018-11-23T18:45:26.211Z,43.00
2018-11-23T18:47:55.142Z,49.30
2018-11-23T18:50:24.095Z,50.67
2018-11-23T18:52:53.025Z,45.50
2018-11-23T18:55:21.972Z,36.93
2018-11-23T18:57:51.112Z,42.03
2018-11-23T19:00:20.078Z,45.47
2018-11-23T19:02:49.006Z,39.17
2018-11-23T19:05:20.397Z,39.60
2018-11-23T19:07:49.316Z,47.13
2018-11-23T19:10:18.259Z,42.47
2018-11-23T19:12:47.200Z,38.80
2018-11-23T19:15:17.561Z,40.17
2018-11-23T19:17:45.977Z,49.73
2018-11-23T19:20:16.005Z,41.57
2018-11-23T19:22:51.096Z,35.70
2018-11-23T19:25:20.005Z,44.70
2018-11-23T19:27:48.937Z,50.53
2018-11-23T19:30:19.001Z,37.63
2018-11-23T19:32:47.945Z,39.33
2018-11-23T19:35:16.905Z,43.93
2018-11-23T19:37:45.854Z,44.83
2018-11-23T19:40:15.685Z,40.03
2018-11-23T19:42:45.223Z,47.07
2018-11-23T19:45:15.116Z,43.40
2018-11-23T19:47:44.162Z,49.73
2018-11-23T19:50:14.177Z,41.57
2018-11-23T19:52:43.119Z,38.07
2018-11-23T19:55:13.879Z,48.33
2018-11-23T19:57:42.848Z,44.77
2018-11-23T20:00:13.598Z,46.80
2018-11-23T20:02:42.562Z,43.47
2018-11-23T20:05:11.499Z,38.57
2018-11-23T20:07:40.417Z,49.83
2018-11-23T20:10:16.324Z,45.93
2018-11-23T20:12:46.075Z,35.77
2018-11-23T20:15:16.999Z,47.67
2018-11-23T20:17:45.966Z,46.93
2018-11-23T20:20:15.629Z,46.83
2018-11-23T20:22:44.907Z,44.53
2018-11-23T20:25:18.773Z,42.10
2018-11-23T20:27:48.761Z,48.17
2018-11-23T20:30:18.606Z,42.97
2018-11-23T20:32:47.592Z,39.63
2018-11-23T20:35:22.413Z,45.63
2018-11-23T20:37:51.347Z,47.50
2018-11-23T20:40:21.287Z,53.90
2018-11-23T20:42:50.281Z,49.13
2018-11-23T20:45:19.227Z,43.43
2018-11-23T20:47:48.195Z,38.53
2018-11-23T20:50:17.796Z,46.97
2018-11-23T20:52:46.736Z,44.30
2018-11-23T20:55:16.923Z,45.63
2018-11-23T20:57:45.845Z,44.40
2018-11-23T21:00:16.594Z,44.33
2018-11-23T21:02:46.128Z,40.40
2018-11-23T21:05:16.172Z,47.70
2018-11-23T21:07:45.125Z,52.70
2018-11-23T21:10:20.727Z,43.17
2018-11-23T21:12:49.054Z,48.50
2018-11-23T21:15:25.154Z,54.43
2018-11-23T21:17:54.117Z,49.53
2018-11-23T21:20:23.086Z,52.03
2018-11-23T21:22:52.049Z,49.10
2018-11-23T21:25:20.954Z,46.53
2018-11-23T21:27:49.862Z,47.13
2018-11-23T21:30:21.800Z,50.67
2018-11-23T21:32:51.265Z,41.53
2018-11-23T21:35:20.199Z,47.50
2018-11-23T21:37:49.164Z,44.27
2018-11-23T21:40:18.160Z,43.67
2018-11-23T21:42:47.118Z,41.40
2018-11-23T21:45:16.978Z,47.20
2018-11-23T21:47:45.948Z,50.73
2018-11-23T21:50:16.614Z,54.73
2018-11-23T21:52:45.578Z,41.70
2018-11-23T21:55:29.306Z,47.43
2018-11-23T21:57:58.234Z,54.73
2018-11-23T22:00:27.184Z,45.43
2018-11-23T22:02:56.122Z,48.87
2018-11-23T22:05:25.021Z,49.50
2018-11-23T22:07:53.973Z,52.03
2018-11-23T22:10:22.886Z,51.83
2018-11-23T22:12:52.094Z,49.23
2018-11-23T22:15:23.852Z,53.63
2018-11-23T22:17:54.804Z,52.20
2018-11-23T22:20:24.057Z,50.53
2018-11-23T22:22:52.974Z,53.57
2018-11-23T22:25:22.690Z,47.00
2018-11-23T22:27:51.622Z,43.47
2018-11-23T22:30:25.085Z,51.63
2018-11-23T22:32:54.005Z,43.70
2018-11-23T22:35:22.971Z,54.33
2018-11-23T22:37:52.231Z,51.03
2018-11-23T22:40:21.394Z,50.40
2018-11-23T22:42:51.719Z,58.83
2018-11-23T22:45:20.722Z,48.37
2018-11-23T22:47:49.634Z,54.87
2018-11-23T22:50:19.670Z,48.93
2018-11-23T22:52:48.672Z,63.50
2018-11-23T22:55:18.339Z,56.77
2018-11-23T22:57:47.259Z,52.83
2018-11-23T23:00:23.762Z,61.10
2018-11-23T23:02:52.696Z,62.10
2018-11-23T23:05:22.778Z,54.13
2018-11-23T23:07:51.739Z,50.50
2018-11-23T23:10:20.684Z,50.70
2018-11-23T23:12:49.640Z,47.67
2018-11-23T23:15:18.543Z,54.73
2018-11-23T23:17:47.463Z,58.33
2018-11-23T23:20:17.772Z,65.43
2018-11-23T23:22:50.916Z,54.13
2018-11-23T23:25:20.494Z,52.67
2018-11-23T23:27:49.424Z,50.07
2018-11-23T23:30:21.232Z,59.07
2018-11-23T23:32:51.080Z,51.07
2018-11-23T23:35:19.991Z,55.17
2018-11-23T23:37:48.959Z,52.67
2018-11-23T23:40:18.359Z,52.30
2018-11-23T23:42:47.852Z,45.63
2018-11-23T23:45:17.744Z,50.53
2018-11-23T23:47:46.756Z,41.67
2018-11-23T23:50:20.547Z,47.57
2018-11-23T23:52:50.188Z,44.27
2018-11-23T23:55:19.381Z,39.83
2018-11-23T23:57:48.783Z,51.50
